sensor_id;sensor_type;location;lat;lon;timestamp;P1;durP1;ratioP1;P2;durP2;ratioP2
64235;SDS011;50564;47.402;9.740;2023-02-28T00:02:56;9.00;;;7.00;;
64235;SDS011;50564;47.402;9.740;2023-02-28T00:07:57;10.45;;;7.22;;
64235;SDS011;50564;47.402;9.740;2023-02-28T00:13:02;9.43;;;6.30;;
64235;SDS011;50564;47.402;9.740;2023-02-28T00:18:04;10.77;;;7.05;;
64235;SDS011;50564;47.402;9.740;2023-02-28T00:23:05;9.95;;;7.00;;
64235;SDS011;50564;47.402;9.740;2023-02-28T00:28:06;12.07;;;7.60;;
64235;SDS011;50564;47.402;9.740;2023-02-28T00:33:06;9.77;;;7.55;;
64235;SDS011;50564;47.402;9.740;2023-02-28T00:38:07;12.35;;;7.28;;
64235;SDS011;50564;47.402;9.740;2023-02-28T00:43:09;12.15;;;7.15;;
64235;SDS011;50564;47.402;9.740;2023-02-28T00:48:09;11.13;;;6.80;;
64235;SDS011;50564;47.402;9.740;2023-02-28T00:53:12;9.95;;;6.72;;
64235;SDS011;50564;47.402;9.740;2023-02-28T00:58:13;9.57;;;5.45;;
64235;SDS011;50564;47.402;9.740;2023-02-28T01:03:14;9.27;;;5.60;;
64235;SDS011;50564;47.402;9.740;2023-02-28T01:08:16;9.43;;;5.57;;
64235;SDS011;50564;47.402;9.740;2023-02-28T01:13:17;8.68;;;5.60;;
64235;SDS011;50564;47.402;9.740;2023-02-28T01:18:19;9.77;;;5.95;;
64235;SDS011;50564;47.402;9.740;2023-02-28T01:23:21;8.60;;;5.60;;
64235;SDS011;50564;47.402;9.740;2023-02-28T01:28:23;9.43;;;5.15;;
64235;SDS011;50564;47.402;9.740;2023-02-28T01:33:24;7.32;;;5.00;;
64235;SDS011;50564;47.402;9.740;2023-02-28T01:38:26;9.20;;;5.60;;
64235;SDS011;50564;47.402;9.740;2023-02-28T01:43:29;8.90;;;6.00;;
64235;SDS011;50564;47.402;9.740;2023-02-28T01:48:54;9.70;;;5.75;;
64235;SDS011;50564;47.402;9.740;2023-02-28T01:54:09;10.13;;;6.00;;
64235;SDS011;50564;47.402;9.740;2023-02-28T01:59:14;8.40;;;5.28;;
64235;SDS011;50564;47.402;9.740;2023-02-28T02:04:26;9.07;;;5.57;;
64235;SDS011;50564;47.402;9.740;2023-02-28T02:09:33;6.53;;;3.87;;
64235;SDS011;50564;47.402;9.740;2023-02-28T02:30:58;10.10;;;6.13;;
64235;SDS011;50564;47.402;9.740;2023-02-28T02:36:09;10.65;;;5.70;;
64235;SDS011;50564;47.402;9.740;2023-02-28T02:46:46;8.57;;;5.13;;
64235;SDS011;50564;47.402;9.740;2023-02-28T02:51:47;7.22;;;4.70;;
64235;SDS011;50564;47.402;9.740;2023-02-28T02:56:49;8.77;;;5.53;;
64235;SDS011;50564;47.402;9.740;2023-02-28T03:01:58;7.95;;;5.00;;
64235;SDS011;50564;47.402;9.740;2023-02-28T03:07:00;8.00;;;5.63;;
64235;SDS011;50564;47.402;9.740;2023-02-28T03:12:01;8.88;;;5.43;;
64235;SDS011;50564;47.402;9.740;2023-02-28T03:33:03;8.07;;;4.85;;
64235;SDS011;50564;47.402;9.740;2023-02-28T03:38:11;7.15;;;5.18;;
64235;SDS011;50564;47.402;9.740;2023-02-28T03:43:18;8.80;;;4.93;;
64235;SDS011;50564;47.402;9.740;2023-02-28T03:48:34;8.23;;;5.80;;
64235;SDS011;50564;47.402;9.740;2023-02-28T03:53:50;8.17;;;5.13;;
64235;SDS011;50564;47.402;9.740;2023-02-28T03:58:55;6.72;;;4.70;;
64235;SDS011;50564;47.402;9.740;2023-02-28T04:03:58;7.18;;;4.53;;
64235;SDS011;50564;47.402;9.740;2023-02-28T04:08:59;8.18;;;4.53;;
64235;SDS011;50564;47.402;9.740;2023-02-28T04:14:01;6.68;;;4.85;;
64235;SDS011;50564;47.402;9.740;2023-02-28T04:19:05;9.82;;;5.80;;
64235;SDS011;50564;47.402;9.740;2023-02-28T04:24:08;8.70;;;5.72;;
64235;SDS011;50564;47.402;9.740;2023-02-28T04:29:18;9.82;;;5.88;;
64235;SDS011;50564;47.402;9.740;2023-02-28T04:34:20;9.93;;;5.78;;
64235;SDS011;50564;47.402;9.740;2023-02-28T04:39:21;8.60;;;6.07;;
64235;SDS011;50564;47.402;9.740;2023-02-28T04:44:23;7.60;;;5.20;;
64235;SDS011;50564;47.402;9.740;2023-02-28T04:49:23;7.82;;;5.60;;
64235;SDS011;50564;47.402;9.740;2023-02-28T04:54:24;8.98;;;6.38;;
64235;SDS011;50564;47.402;9.740;2023-02-28T04:59:25;14.73;;;9.82;;
64235;SDS011;50564;47.402;9.740;2023-02-28T05:04:25;13.75;;;9.88;;
64235;SDS011;50564;47.402;9.740;2023-02-28T05:09:26;19.17;;;12.35;;
64235;SDS011;50564;47.402;9.740;2023-02-28T05:14:28;19.58;;;9.93;;
64235;SDS011;50564;47.402;9.740;2023-02-28T05:19:28;15.88;;;8.98;;
64235;SDS011;50564;47.402;9.740;2023-02-28T05:24:29;15.32;;;8.80;;
64235;SDS011;50564;47.402;9.740;2023-02-28T05:29:30;13.25;;;8.80;;
64235;SDS011;50564;47.402;9.740;2023-02-28T05:34:30;14.13;;;8.93;;
64235;SDS011;50564;47.402;9.740;2023-02-28T05:39:31;15.07;;;9.35;;
64235;SDS011;50564;47.402;9.740;2023-02-28T05:44:32;14.55;;;10.05;;
64235;SDS011;50564;47.402;9.740;2023-02-28T05:49:32;15.63;;;10.38;;
64235;SDS011;50564;47.402;9.740;2023-02-28T05:54:33;24.77;;;15.10;;
64235;SDS011;50564;47.402;9.740;2023-02-28T05:59:34;36.78;;;22.95;;
64235;SDS011;50564;47.402;9.740;2023-02-28T06:04:34;29.55;;;20.65;;
64235;SDS011;50564;47.402;9.740;2023-02-28T06:09:36;28.88;;;20.02;;
64235;SDS011;50564;47.402;9.740;2023-02-28T06:14:36;22.05;;;15.13;;
64235;SDS011;50564;47.402;9.740;2023-02-28T06:19:38;22.67;;;14.95;;
64235;SDS011;50564;47.402;9.740;2023-02-28T06:24:39;24.90;;;16.00;;
64235;SDS011;50564;47.402;9.740;2023-02-28T06:29:39;18.38;;;12.30;;
64235;SDS011;50564;47.402;9.740;2023-02-28T06:34:40;19.42;;;13.20;;
64235;SDS011;50564;47.402;9.740;2023-02-28T06:39:41;41.30;;;20.08;;
64235;SDS011;50564;47.402;9.740;2023-02-28T06:44:41;25.05;;;14.00;;
64235;SDS011;50564;47.402;9.740;2023-02-28T06:49:43;24.15;;;14.02;;
64235;SDS011;50564;47.402;9.740;2023-02-28T06:54:45;25.67;;;15.40;;
64235;SDS011;50564;47.402;9.740;2023-02-28T06:59:45;21.42;;;13.13;;
64235;SDS011;50564;47.402;9.740;2023-02-28T07:04:46;23.33;;;14.63;;
64235;SDS011;50564;47.402;9.740;2023-02-28T07:09:47;15.02;;;9.93;;
64235;SDS011;50564;47.402;9.740;2023-02-28T07:14:47;12.60;;;9.40;;
64235;SDS011;50564;47.402;9.740;2023-02-28T07:19:48;20.63;;;14.13;;
64235;SDS011;50564;47.402;9.740;2023-02-28T07:24:49;18.92;;;12.85;;
64235;SDS011;50564;47.402;9.740;2023-02-28T07:29:49;15.23;;;10.00;;
64235;SDS011;50564;47.402;9.740;2023-02-28T07:34:50;15.90;;;10.77;;
64235;SDS011;50564;47.402;9.740;2023-02-28T07:39:51;23.00;;;14.18;;
64235;SDS011;50564;47.402;9.740;2023-02-28T07:44:51;21.30;;;13.80;;
64235;SDS011;50564;47.402;9.740;2023-02-28T07:49:53;22.30;;;13.57;;
64235;SDS011;50564;47.402;9.740;2023-02-28T07:54:54;16.02;;;11.48;;
64235;SDS011;50564;47.402;9.740;2023-02-28T07:59:54;16.73;;;10.77;;
64235;SDS011;50564;47.402;9.740;2023-02-28T08:04:55;15.20;;;10.52;;
64235;SDS011;50564;47.402;9.740;2023-02-28T08:09:56;14.13;;;10.60;;
64235;SDS011;50564;47.402;9.740;2023-02-28T08:14:57;13.23;;;9.68;;
64235;SDS011;50564;47.402;9.740;2023-02-28T08:19:57;13.73;;;10.13;;
64235;SDS011;50564;47.402;9.740;2023-02-28T08:24:58;13.23;;;9.07;;
64235;SDS011;50564;47.402;9.740;2023-02-28T08:29:59;13.45;;;9.68;;
64235;SDS011;50564;47.402;9.740;2023-02-28T08:34:59;14.73;;;10.18;;
64235;SDS011;50564;47.402;9.740;2023-02-28T08:40:00;15.88;;;9.85;;
64235;SDS011;50564;47.402;9.740;2023-02-28T08:45:01;13.65;;;9.40;;
64235;SDS011;50564;47.402;9.740;2023-02-28T08:50:01;14.52;;;9.65;;
64235;SDS011;50564;47.402;9.740;2023-02-28T08:55:03;14.30;;;9.15;;
64235;SDS011;50564;47.402;9.740;2023-02-28T09:00:04;16.38;;;9.43;;
64235;SDS011;50564;47.402;9.740;2023-02-28T09:05:05;15.35;;;10.40;;
64235;SDS011;50564;47.402;9.740;2023-02-28T09:10:06;12.65;;;9.50;;
64235;SDS011;50564;47.402;9.740;2023-02-28T09:15:07;13.77;;;9.00;;
64235;SDS011;50564;47.402;9.740;2023-02-28T09:20:08;12.70;;;10.05;;
64235;SDS011;50564;47.402;9.740;2023-02-28T09:25:09;15.23;;;9.65;;
64235;SDS011;50564;47.402;9.740;2023-02-28T09:30:10;13.30;;;9.98;;
64235;SDS011;50564;47.402;9.740;2023-02-28T09:35:11;14.88;;;9.02;;
64235;SDS011;50564;47.402;9.740;2023-02-28T09:40:16;11.65;;;8.18;;
64235;SDS011;50564;47.402;9.740;2023-02-28T09:50:32;13.80;;;9.00;;
64235;SDS011;50564;47.402;9.740;2023-02-28T10:00:39;12.07;;;8.68;;
64235;SDS011;50564;47.402;9.740;2023-02-28T10:06:00;14.48;;;10.00;;
64235;SDS011;50564;47.402;9.740;2023-02-28T10:11:07;14.93;;;9.95;;
64235;SDS011;50564;47.402;9.740;2023-02-28T10:16:12;13.90;;;9.32;;
64235;SDS011;50564;47.402;9.740;2023-02-28T10:21:17;12.30;;;8.48;;
64235;SDS011;50564;47.402;9.740;2023-02-28T10:26:28;13.93;;;9.40;;
64235;SDS011;50564;47.402;9.740;2023-02-28T10:31:31;11.52;;;8.80;;
64235;SDS011;50564;47.402;9.740;2023-02-28T10:36:32;15.05;;;11.70;;
64235;SDS011;50564;47.402;9.740;2023-02-28T10:41:33;13.55;;;9.75;;
64235;SDS011;50564;47.402;9.740;2023-02-28T10:46:36;12.63;;;9.50;;
64235;SDS011;50564;47.402;9.740;2023-02-28T10:51:37;14.55;;;10.23;;
64235;SDS011;50564;47.402;9.740;2023-02-28T10:56:39;12.45;;;8.23;;
64235;SDS011;50564;47.402;9.740;2023-02-28T11:01:46;12.25;;;8.85;;
64235;SDS011;50564;47.402;9.740;2023-02-28T11:07:00;14.88;;;11.15;;
64235;SDS011;50564;47.402;9.740;2023-02-28T11:12:02;14.65;;;11.63;;
64235;SDS011;50564;47.402;9.740;2023-02-28T11:17:13;16.63;;;11.82;;
64235;SDS011;50564;47.402;9.740;2023-02-28T11:22:19;14.18;;;10.73;;
64235;SDS011;50564;47.402;9.740;2023-02-28T11:32:27;14.45;;;10.80;;
64235;SDS011;50564;47.402;9.740;2023-02-28T11:37:30;15.20;;;10.48;;
64235;SDS011;50564;47.402;9.740;2023-02-28T12:03:58;13.75;;;10.52;;
64235;SDS011;50564;47.402;9.740;2023-02-28T12:09:30;13.13;;;8.05;;
64235;SDS011;50564;47.402;9.740;2023-02-28T12:20:42;12.30;;;9.52;;
64235;SDS011;50564;47.402;9.740;2023-02-28T12:36:17;15.55;;;11.32;;
64235;SDS011;50564;47.402;9.740;2023-02-28T12:41:24;14.45;;;10.90;;
64235;SDS011;50564;47.402;9.740;2023-02-28T12:46:34;10.50;;;7.80;;
64235;SDS011;50564;47.402;9.740;2023-02-28T12:51:37;14.20;;;10.63;;
64235;SDS011;50564;47.402;9.740;2023-02-28T12:56:42;15.25;;;10.63;;
64235;SDS011;50564;47.402;9.740;2023-02-28T13:12:25;15.23;;;11.02;;
64235;SDS011;50564;47.402;9.740;2023-02-28T13:17:26;13.23;;;10.30;;
64235;SDS011;50564;47.402;9.740;2023-02-28T13:27:39;13.80;;;10.65;;
64235;SDS011;50564;47.402;9.740;2023-02-28T13:32:41;13.48;;;10.80;;
64235;SDS011;50564;47.402;9.740;2023-02-28T13:37:43;13.73;;;10.48;;
64235;SDS011;50564;47.402;9.740;2023-02-28T13:42:48;14.75;;;10.98;;
64235;SDS011;50564;47.402;9.740;2023-02-28T13:47:54;14.25;;;11.13;;
64235;SDS011;50564;47.402;9.740;2023-02-28T14:08:52;15.18;;;11.32;;
64235;SDS011;50564;47.402;9.740;2023-02-28T14:13:56;14.73;;;10.70;;
64235;SDS011;50564;47.402;9.740;2023-02-28T14:19:05;15.27;;;11.30;;
64235;SDS011;50564;47.402;9.740;2023-02-28T14:29:34;16.02;;;11.43;;
64235;SDS011;50564;47.402;9.740;2023-02-28T14:35:04;15.32;;;11.57;;
64235;SDS011;50564;47.402;9.740;2023-02-28T14:40:33;14.43;;;11.43;;
64235;SDS011;50564;47.402;9.740;2023-02-28T14:45:35;15.68;;;11.02;;
64235;SDS011;50564;47.402;9.740;2023-02-28T14:50:37;25.85;;;22.02;;
64235;SDS011;50564;47.402;9.740;2023-02-28T14:55:43;15.25;;;11.52;;
64235;SDS011;50564;47.402;9.740;2023-02-28T15:00:49;18.25;;;12.25;;
64235;SDS011;50564;47.402;9.740;2023-02-28T15:05:58;16.08;;;10.63;;
64235;SDS011;50564;47.402;9.740;2023-02-28T15:11:01;19.40;;;12.35;;
64235;SDS011;50564;47.402;9.740;2023-02-28T15:16:04;17.05;;;12.80;;
64235;SDS011;50564;47.402;9.740;2023-02-28T15:21:12;17.13;;;12.13;;
64235;SDS011;50564;47.402;9.740;2023-02-28T15:26:41;15.95;;;11.98;;
64235;SDS011;50564;47.402;9.740;2023-02-28T15:31:44;17.48;;;11.15;;
64235;SDS011;50564;47.402;9.740;2023-02-28T15:36:46;18.92;;;13.48;;
64235;SDS011;50564;47.402;9.740;2023-02-28T15:41:48;18.95;;;13.60;;
64235;SDS011;50564;47.402;9.740;2023-02-28T15:46:59;17.33;;;12.30;;
64235;SDS011;50564;47.402;9.740;2023-02-28T15:52:01;17.15;;;12.60;;
64235;SDS011;50564;47.402;9.740;2023-02-28T15:57:05;16.77;;;13.07;;
64235;SDS011;50564;47.402;9.740;2023-02-28T16:07:12;20.05;;;12.88;;
64235;SDS011;50564;47.402;9.740;2023-02-28T16:12:18;18.77;;;12.80;;
64235;SDS011;50564;47.402;9.740;2023-02-28T16:17:24;18.75;;;12.50;;
64235;SDS011;50564;47.402;9.740;2023-02-28T16:22:27;19.67;;;12.93;;
64235;SDS011;50564;47.402;9.740;2023-02-28T16:27:30;19.95;;;13.20;;
64235;SDS011;50564;47.402;9.740;2023-02-28T16:32:33;20.33;;;13.02;;
64235;SDS011;50564;47.402;9.740;2023-02-28T16:37:35;19.33;;;12.55;;
64235;SDS011;50564;47.402;9.740;2023-02-28T16:42:37;28.60;;;15.80;;
64235;SDS011;50564;47.402;9.740;2023-02-28T16:47:39;24.42;;;13.73;;
64235;SDS011;50564;47.402;9.740;2023-02-28T16:52:40;29.88;;;18.27;;
64235;SDS011;50564;47.402;9.740;2023-02-28T16:57:41;17.60;;;12.73;;
64235;SDS011;50564;47.402;9.740;2023-02-28T17:02:42;21.58;;;15.35;;
64235;SDS011;50564;47.402;9.740;2023-02-28T17:07:43;20.48;;;14.98;;
64235;SDS011;50564;47.402;9.740;2023-02-28T17:12:43;22.63;;;15.70;;
64235;SDS011;50564;47.402;9.740;2023-02-28T17:17:45;24.85;;;17.45;;
64235;SDS011;50564;47.402;9.740;2023-02-28T17:22:46;20.05;;;14.32;;
64235;SDS011;50564;47.402;9.740;2023-02-28T17:27:47;22.70;;;16.35;;
64235;SDS011;50564;47.402;9.740;2023-02-28T17:32:48;23.92;;;15.95;;
64235;SDS011;50564;47.402;9.740;2023-02-28T17:37:49;23.98;;;15.57;;
64235;SDS011;50564;47.402;9.740;2023-02-28T17:42:51;22.88;;;16.35;;
64235;SDS011;50564;47.402;9.740;2023-02-28T17:47:52;26.70;;;17.48;;
64235;SDS011;50564;47.402;9.740;2023-02-28T17:52:53;26.42;;;18.35;;
64235;SDS011;50564;47.402;9.740;2023-02-28T17:57:54;54.28;;;31.52;;
64235;SDS011;50564;47.402;9.740;2023-02-28T18:02:55;91.70;;;49.08;;
64235;SDS011;50564;47.402;9.740;2023-02-28T18:07:56;52.05;;;31.23;;
64235;SDS011;50564;47.402;9.740;2023-02-28T18:12:57;30.73;;;20.52;;
64235;SDS011;50564;47.402;9.740;2023-02-28T18:17:58;21.77;;;16.20;;
64235;SDS011;50564;47.402;9.740;2023-02-28T18:22:59;22.33;;;15.40;;
64235;SDS011;50564;47.402;9.740;2023-02-28T18:28:00;27.55;;;17.10;;
64235;SDS011;50564;47.402;9.740;2023-02-28T18:33:02;24.80;;;16.35;;
64235;SDS011;50564;47.402;9.740;2023-02-28T18:38:07;27.40;;;16.02;;
64235;SDS011;50564;47.402;9.740;2023-02-28T18:43:13;20.85;;;14.77;;
64235;SDS011;50564;47.402;9.740;2023-02-28T18:48:14;30.00;;;19.08;;
64235;SDS011;50564;47.402;9.740;2023-02-28T18:53:16;29.08;;;18.40;;
64235;SDS011;50564;47.402;9.740;2023-02-28T18:58:18;26.05;;;17.38;;
64235;SDS011;50564;47.402;9.740;2023-02-28T19:03:19;22.20;;;15.73;;
64235;SDS011;50564;47.402;9.740;2023-02-28T19:08:21;27.17;;;18.85;;
64235;SDS011;50564;47.402;9.740;2023-02-28T19:13:25;25.48;;;18.05;;
64235;SDS011;50564;47.402;9.740;2023-02-28T19:18:27;24.90;;;16.75;;
64235;SDS011;50564;47.402;9.740;2023-02-28T19:23:30;26.33;;;17.58;;
64235;SDS011;50564;47.402;9.740;2023-02-28T19:28:31;25.17;;;16.92;;
64235;SDS011;50564;47.402;9.740;2023-02-28T19:33:34;25.58;;;17.42;;
64235;SDS011;50564;47.402;9.740;2023-02-28T19:38:35;24.98;;;17.23;;
64235;SDS011;50564;47.402;9.740;2023-02-28T19:43:38;24.75;;;16.70;;
64235;SDS011;50564;47.402;9.740;2023-02-28T19:48:39;24.70;;;17.08;;
64235;SDS011;50564;47.402;9.740;2023-02-28T19:53:45;23.20;;;16.77;;
64235;SDS011;50564;47.402;9.740;2023-02-28T19:58:47;26.70;;;17.63;;
64235;SDS011;50564;47.402;9.740;2023-02-28T20:03:49;26.80;;;18.40;;
64235;SDS011;50564;47.402;9.740;2023-02-28T20:08:52;27.40;;;19.25;;
64235;SDS011;50564;47.402;9.740;2023-02-28T20:13:54;23.20;;;16.63;;
64235;SDS011;50564;47.402;9.740;2023-02-28T20:18:56;27.63;;;18.20;;
64235;SDS011;50564;47.402;9.740;2023-02-28T20:23:57;25.67;;;18.08;;
64235;SDS011;50564;47.402;9.740;2023-02-28T20:28:59;26.33;;;18.08;;
64235;SDS011;50564;47.402;9.740;2023-02-28T20:34:00;27.88;;;18.45;;
64235;SDS011;50564;47.402;9.740;2023-02-28T20:39:01;25.88;;;18.17;;
64235;SDS011;50564;47.402;9.740;2023-02-28T20:44:02;26.35;;;17.27;;
64235;SDS011;50564;47.402;9.740;2023-02-28T20:49:05;27.27;;;17.45;;
64235;SDS011;50564;47.402;9.740;2023-02-28T20:54:07;23.50;;;16.77;;
64235;SDS011;50564;47.402;9.740;2023-02-28T20:59:11;24.38;;;17.30;;
64235;SDS011;50564;47.402;9.740;2023-02-28T21:04:12;27.25;;;17.15;;
64235;SDS011;50564;47.402;9.740;2023-02-28T21:09:13;30.23;;;18.70;;
64235;SDS011;50564;47.402;9.740;2023-02-28T21:14:15;28.95;;;18.50;;
64235;SDS011;50564;47.402;9.740;2023-02-28T21:19:16;27.33;;;18.13;;
64235;SDS011;50564;47.402;9.740;2023-02-28T21:24:18;25.38;;;17.00;;
64235;SDS011;50564;47.402;9.740;2023-02-28T21:29:19;29.88;;;17.80;;
64235;SDS011;50564;47.402;9.740;2023-02-28T21:34:20;24.90;;;17.27;;
64235;SDS011;50564;47.402;9.740;2023-02-28T21:39:25;27.92;;;17.60;;
64235;SDS011;50564;47.402;9.740;2023-02-28T21:44:29;28.02;;;17.73;;
64235;SDS011;50564;47.402;9.740;2023-02-28T21:49:33;25.85;;;16.92;;
64235;SDS011;50564;47.402;9.740;2023-02-28T21:54:34;25.98;;;17.05;;
64235;SDS011;50564;47.402;9.740;2023-02-28T21:59:34;22.90;;;16.17;;
64235;SDS011;50564;47.402;9.740;2023-02-28T22:04:35;25.98;;;17.20;;
64235;SDS011;50564;47.402;9.740;2023-02-28T22:09:38;24.20;;;16.33;;
64235;SDS011;50564;47.402;9.740;2023-02-28T22:14:38;24.15;;;15.82;;
64235;SDS011;50564;47.402;9.740;2023-02-28T22:19:40;25.65;;;17.23;;
64235;SDS011;50564;47.402;9.740;2023-02-28T22:24:41;26.20;;;17.33;;
64235;SDS011;50564;47.402;9.740;2023-02-28T22:29:42;26.17;;;17.75;;
64235;SDS011;50564;47.402;9.740;2023-02-28T22:34:42;26.50;;;17.35;;
64235;SDS011;50564;47.402;9.740;2023-02-28T22:39:43;24.65;;;16.60;;
64235;SDS011;50564;47.402;9.740;2023-02-28T22:44:44;28.23;;;18.33;;
64235;SDS011;50564;47.402;9.740;2023-02-28T22:49:45;31.50;;;20.20;;
64235;SDS011;50564;47.402;9.740;2023-02-28T22:54:49;23.33;;;15.43;;
64235;SDS011;50564;47.402;9.740;2023-02-28T22:59:50;26.70;;;16.63;;
64235;SDS011;50564;47.402;9.740;2023-02-28T23:04:53;27.30;;;17.85;;
64235;SDS011;50564;47.402;9.740;2023-02-28T23:09:54;28.17;;;18.10;;
64235;SDS011;50564;47.402;9.740;2023-02-28T23:14:54;25.42;;;16.95;;
64235;SDS011;50564;47.402;9.740;2023-02-28T23:19:55;28.10;;;17.58;;
64235;SDS011;50564;47.402;9.740;2023-02-28T23:24:55;30.67;;;18.83;;
64235;SDS011;50564;47.402;9.740;2023-02-28T23:29:56;26.23;;;16.38;;
64235;SDS011;50564;47.402;9.740;2023-02-28T23:34:58;29.27;;;18.30;;
64235;SDS011;50564;47.402;9.740;2023-02-28T23:39:59;27.55;;;18.13;;
64235;SDS011;50564;47.402;9.740;2023-02-28T23:45:00;26.60;;;18.27;;
64235;SDS011;50564;47.402;9.740;2023-02-28T23:50:01;27.17;;;17.70;;
64235;SDS011;50564;47.402;9.740;2023-02-28T23:55:03;25.85;;;17.77;;
